sensor_id;sensor_type;location;lat;lon;timestamp;temperature;humidity
55091;DHT22;40985;53.180;5.800;2023-11-21T00:02:20;9.40;99.90
55091;DHT22;40985;53.180;5.800;2023-11-21T00:04:48;9.50;99.90
55091;DHT22;40985;53.180;5.800;2023-11-21T00:07:14;9.60;99.90
55091;DHT22;40985;53.180;5.800;2023-11-21T00:09:40;9.50;99.90
55091;DHT22;40985;53.180;5.800;2023-11-21T00:12:09;9.40;99.90
55091;DHT22;40985;53.180;5.800;2023-11-21T00:14:39;9.40;99.90
55091;DHT22;40985;53.180;5.800;2023-11-21T00:17:06;9.60;99.90
55091;DHT22;40985;53.180;5.800;2023-11-21T00:19:32;9.60;99.90
55091;DHT22;40985;53.180;5.800;2023-11-21T00:21:59;9.60;99.90
55091;DHT22;40985;53.180;5.800;2023-11-21T00:24:25;9.60;99.90
55091;DHT22;40985;53.180;5.800;2023-11-21T00:26:51;9.50;99.90
55091;DHT22;40985;53.180;5.800;2023-11-21T00:29:17;9.40;99.90
55091;DHT22;40985;53.180;5.800;2023-11-21T00:31:44;9.50;99.90
55091;DHT22;40985;53.180;5.800;2023-11-21T00:34:11;9.50;99.90
55091;DHT22;40985;53.180;5.800;2023-11-21T00:36:37;9.30;99.90
55091;DHT22;40985;53.180;5.800;2023-11-21T00:39:03;9.30;99.90
55091;DHT22;40985;53.180;5.800;2023-11-21T00:41:29;9.40;99.90
55091;DHT22;40985;53.180;5.800;2023-11-21T00:43:55;9.40;99.90
55091;DHT22;40985;53.180;5.800;2023-11-21T00:46:21;9.50;99.90
55091;DHT22;40985;53.180;5.800;2023-11-21T00:48:46;9.40;99.90
55091;DHT22;40985;53.180;5.800;2023-11-21T00:51:12;9.50;99.90
55091;DHT22;40985;53.180;5.800;2023-11-21T00:53:38;9.60;99.90
55091;DHT22;40985;53.180;5.800;2023-11-21T00:56:05;9.50;99.90
55091;DHT22;40985;53.180;5.800;2023-11-21T00:58:31;9.50;99.90
55091;DHT22;40985;53.180;5.800;2023-11-21T01:00:56;9.40;99.90
55091;DHT22;40985;53.180;5.800;2023-11-21T01:03:23;9.50;99.90
55091;DHT22;40985;53.180;5.800;2023-11-21T01:05:48;9.60;99.90
55091;DHT22;40985;53.180;5.800;2023-11-21T01:08:15;9.50;99.90
55091;DHT22;40985;53.180;5.800;2023-11-21T01:10:41;9.50;99.90
55091;DHT22;40985;53.180;5.800;2023-11-21T01:13:07;9.60;99.90
55091;DHT22;40985;53.180;5.800;2023-11-21T01:15:36;9.60;99.90
55091;DHT22;40985;53.180;5.800;2023-11-21T01:18:01;9.50;99.90
55091;DHT22;40985;53.180;5.800;2023-11-21T01:20:27;9.50;99.90
55091;DHT22;40985;53.180;5.800;2023-11-21T01:22:53;9.50;99.90
55091;DHT22;40985;53.180;5.800;2023-11-21T01:25:19;9.60;99.90
55091;DHT22;40985;53.180;5.800;2023-11-21T01:27:46;9.60;99.90
55091;DHT22;40985;53.180;5.800;2023-11-21T01:30:12;9.50;99.90
55091;DHT22;40985;53.180;5.800;2023-11-21T01:32:38;9.60;99.90
55091;DHT22;40985;53.180;5.800;2023-11-21T01:35:05;9.60;99.90
55091;DHT22;40985;53.180;5.800;2023-11-21T01:37:32;9.70;99.90
55091;DHT22;40985;53.180;5.800;2023-11-21T01:39:59;9.80;99.90
55091;DHT22;40985;53.180;5.800;2023-11-21T01:42:25;9.60;99.90
55091;DHT22;40985;53.180;5.800;2023-11-21T01:44:55;9.70;99.90
55091;DHT22;40985;53.180;5.800;2023-11-21T01:47:21;9.90;99.90
55091;DHT22;40985;53.180;5.800;2023-11-21T01:49:47;9.90;99.90
55091;DHT22;40985;53.180;5.800;2023-11-21T01:52:13;9.90;99.90
55091;DHT22;40985;53.180;5.800;2023-11-21T01:54:41;9.90;99.90
55091;DHT22;40985;53.180;5.800;2023-11-21T01:57:08;9.80;99.90
55091;DHT22;40985;53.180;5.800;2023-11-21T01:59:35;10.00;99.90
55091;DHT22;40985;53.180;5.800;2023-11-21T02:02:04;9.80;99.90
55091;DHT22;40985;53.180;5.800;2023-11-21T02:04:34;9.80;99.90
55091;DHT22;40985;53.180;5.800;2023-11-21T02:07:01;10.10;99.90
55091;DHT22;40985;53.180;5.800;2023-11-21T02:09:27;9.90;99.90
55091;DHT22;40985;53.180;5.800;2023-11-21T02:11:54;10.10;99.90
55091;DHT22;40985;53.180;5.800;2023-11-21T02:14:21;10.20;99.90
55091;DHT22;40985;53.180;5.800;2023-11-21T02:16:50;10.00;99.90
55091;DHT22;40985;53.180;5.800;2023-11-21T02:19:21;10.20;99.90
55091;DHT22;40985;53.180;5.800;2023-11-21T02:21:53;10.00;99.90
55091;DHT22;40985;53.180;5.800;2023-11-21T02:24:23;10.10;99.90
55091;DHT22;40985;53.180;5.800;2023-11-21T02:26:49;10.20;99.90
55091;DHT22;40985;53.180;5.800;2023-11-21T02:29:19;10.20;99.90
55091;DHT22;40985;53.180;5.800;2023-11-21T02:31:51;10.00;99.90
55091;DHT22;40985;53.180;5.800;2023-11-21T02:34:17;10.10;99.90
55091;DHT22;40985;53.180;5.800;2023-11-21T02:36:44;10.00;99.90
55091;DHT22;40985;53.180;5.800;2023-11-21T02:39:10;10.20;99.90
55091;DHT22;40985;53.180;5.800;2023-11-21T02:41:39;10.00;99.90
55091;DHT22;40985;53.180;5.800;2023-11-21T02:44:08;10.10;99.90
55091;DHT22;40985;53.180;5.800;2023-11-21T02:46:34;10.20;99.90
55091;DHT22;40985;53.180;5.800;2023-11-21T02:49:04;10.10;99.90
55091;DHT22;40985;53.180;5.800;2023-11-21T02:51:31;10.10;99.90
55091;DHT22;40985;53.180;5.800;2023-11-21T02:53:57;10.20;99.90
55091;DHT22;40985;53.180;5.800;2023-11-21T02:56:28;10.10;99.90
55091;DHT22;40985;53.180;5.800;2023-11-21T02:58:57;10.20;99.90
55091;DHT22;40985;53.180;5.800;2023-11-21T03:01:23;10.30;99.90
55091;DHT22;40985;53.180;5.800;2023-11-21T03:03:53;10.00;99.90
55091;DHT22;40985;53.180;5.800;2023-11-21T03:06:19;10.20;99.90
55091;DHT22;40985;53.180;5.800;2023-11-21T03:08:46;10.20;99.90
55091;DHT22;40985;53.180;5.800;2023-11-21T03:11:12;10.20;99.90
55091;DHT22;40985;53.180;5.800;2023-11-21T03:13:41;10.10;99.90
55091;DHT22;40985;53.180;5.800;2023-11-21T03:16:10;10.10;99.90
55091;DHT22;40985;53.180;5.800;2023-11-21T03:18:37;10.20;99.90
55091;DHT22;40985;53.180;5.800;2023-11-21T03:21:04;10.10;99.90
55091;DHT22;40985;53.180;5.800;2023-11-21T03:23:30;9.90;99.90
55091;DHT22;40985;53.180;5.800;2023-11-21T03:25:55;9.90;99.90
55091;DHT22;40985;53.180;5.800;2023-11-21T03:28:21;9.90;99.90
55091;DHT22;40985;53.180;5.800;2023-11-21T03:30:47;9.90;99.90
55091;DHT22;40985;53.180;5.800;2023-11-21T03:33:12;10.10;99.90
55091;DHT22;40985;53.180;5.800;2023-11-21T03:35:38;10.00;99.90
55091;DHT22;40985;53.180;5.800;2023-11-21T03:38:04;9.80;99.90
55091;DHT22;40985;53.180;5.800;2023-11-21T03:40:30;9.90;99.90
55091;DHT22;40985;53.180;5.800;2023-11-21T03:42:57;10.00;99.90
55091;DHT22;40985;53.180;5.800;2023-11-21T03:45:23;9.90;99.90
55091;DHT22;40985;53.180;5.800;2023-11-21T03:47:48;10.00;99.90
55091;DHT22;40985;53.180;5.800;2023-11-21T03:50:14;9.80;99.90
55091;DHT22;40985;53.180;5.800;2023-11-21T03:52:40;10.00;99.90
55091;DHT22;40985;53.180;5.800;2023-11-21T03:55:05;9.80;99.90
55091;DHT22;40985;53.180;5.800;2023-11-21T03:57:31;10.00;99.90
55091;DHT22;40985;53.180;5.800;2023-11-21T03:59:57;9.90;99.90
55091;DHT22;40985;53.180;5.800;2023-11-21T04:02:23;9.80;99.90
55091;DHT22;40985;53.180;5.800;2023-11-21T04:04:50;9.80;99.90
55091;DHT22;40985;53.180;5.800;2023-11-21T04:07:16;9.90;99.90
55091;DHT22;40985;53.180;5.800;2023-11-21T04:09:42;9.80;99.90
55091;DHT22;40985;53.180;5.800;2023-11-21T04:12:08;9.90;99.90
55091;DHT22;40985;53.180;5.800;2023-11-21T04:14:36;9.90;99.90
55091;DHT22;40985;53.180;5.800;2023-11-21T04:17:02;9.80;99.90
55091;DHT22;40985;53.180;5.800;2023-11-21T04:19:29;9.70;99.90
55091;DHT22;40985;53.180;5.800;2023-11-21T04:21:55;9.80;99.90
55091;DHT22;40985;53.180;5.800;2023-11-21T04:24:21;9.80;99.90
55091;DHT22;40985;53.180;5.800;2023-11-21T04:26:46;9.70;99.90
55091;DHT22;40985;53.180;5.800;2023-11-21T04:29:12;9.80;99.90
55091;DHT22;40985;53.180;5.800;2023-11-21T04:31:38;9.70;99.90
55091;DHT22;40985;53.180;5.800;2023-11-21T04:34:03;9.80;99.90
55091;DHT22;40985;53.180;5.800;2023-11-21T04:36:32;9.70;99.90
55091;DHT22;40985;53.180;5.800;2023-11-21T04:38:57;9.80;99.90
55091;DHT22;40985;53.180;5.800;2023-11-21T04:41:23;9.70;99.90
55091;DHT22;40985;53.180;5.800;2023-11-21T04:43:49;9.70;99.90
55091;DHT22;40985;53.180;5.800;2023-11-21T04:46:15;9.70;99.90
55091;DHT22;40985;53.180;5.800;2023-11-21T04:48:40;9.60;99.90
55091;DHT22;40985;53.180;5.800;2023-11-21T04:51:06;9.70;99.90
55091;DHT22;40985;53.180;5.800;2023-11-21T04:53:32;9.70;99.90
55091;DHT22;40985;53.180;5.800;2023-11-21T04:55:58;9.50;99.90
55091;DHT22;40985;53.180;5.800;2023-11-21T04:58:24;9.70;99.90
55091;DHT22;40985;53.180;5.800;2023-11-21T05:00:50;9.70;99.90
55091;DHT22;40985;53.180;5.800;2023-11-21T05:03:15;9.60;99.90
55091;DHT22;40985;53.180;5.800;2023-11-21T05:05:41;9.50;99.90
55091;DHT22;40985;53.180;5.800;2023-11-21T05:08:07;9.50;99.90
55091;DHT22;40985;53.180;5.800;2023-11-21T05:10:33;9.50;99.90
55091;DHT22;40985;53.180;5.800;2023-11-21T05:12:59;9.50;99.90
55091;DHT22;40985;53.180;5.800;2023-11-21T05:15:25;9.60;99.90
55091;DHT22;40985;53.180;5.800;2023-11-21T05:17:53;9.50;99.90
55091;DHT22;40985;53.180;5.800;2023-11-21T05:20:20;9.30;99.90
55091;DHT22;40985;53.180;5.800;2023-11-21T05:22:49;9.40;99.90
55091;DHT22;40985;53.180;5.800;2023-11-21T05:25:16;9.30;99.90
55091;DHT22;40985;53.180;5.800;2023-11-21T05:27:44;9.30;99.90
55091;DHT22;40985;53.180;5.800;2023-11-21T05:30:10;9.30;99.90
55091;DHT22;40985;53.180;5.800;2023-11-21T05:32:38;9.10;99.90
55091;DHT22;40985;53.180;5.800;2023-11-21T05:35:04;9.20;99.90
55091;DHT22;40985;53.180;5.800;2023-11-21T05:37:35;9.00;99.90
55091;DHT22;40985;53.180;5.800;2023-11-21T05:40:01;9.10;99.90
55091;DHT22;40985;53.180;5.800;2023-11-21T05:42:35;9.10;99.90
55091;DHT22;40985;53.180;5.800;2023-11-21T05:45:01;8.90;99.90
55091;DHT22;40985;53.180;5.800;2023-11-21T05:47:40;8.90;99.90
55091;DHT22;40985;53.180;5.800;2023-11-21T05:50:10;8.90;99.90
55091;DHT22;40985;53.180;5.800;2023-11-21T05:52:38;8.90;99.90
55091;DHT22;40985;53.180;5.800;2023-11-21T05:55:05;9.10;99.90
55091;DHT22;40985;53.180;5.800;2023-11-21T05:57:36;9.00;99.90
55091;DHT22;40985;53.180;5.800;2023-11-21T06:00:10;9.00;99.90
55091;DHT22;40985;53.180;5.800;2023-11-21T06:02:40;8.90;99.90
55091;DHT22;40985;53.180;5.800;2023-11-21T06:05:09;9.10;99.90
55091;DHT22;40985;53.180;5.800;2023-11-21T06:07:36;8.90;99.90
55091;DHT22;40985;53.180;5.800;2023-11-21T06:10:07;9.00;99.90
55091;DHT22;40985;53.180;5.800;2023-11-21T06:12:35;8.80;99.90
55091;DHT22;40985;53.180;5.800;2023-11-21T06:15:05;9.00;99.90
55091;DHT22;40985;53.180;5.800;2023-11-21T06:17:32;9.00;99.90
55091;DHT22;40985;53.180;5.800;2023-11-21T06:19:59;8.80;99.90
55091;DHT22;40985;53.180;5.800;2023-11-21T06:22:26;8.90;99.90
55091;DHT22;40985;53.180;5.800;2023-11-21T06:24:51;9.00;99.90
55091;DHT22;40985;53.180;5.800;2023-11-21T06:27:17;8.80;99.90
55091;DHT22;40985;53.180;5.800;2023-11-21T06:29:43;8.90;99.90
55091;DHT22;40985;53.180;5.800;2023-11-21T06:32:09;8.80;99.90
55091;DHT22;40985;53.180;5.800;2023-11-21T06:34:35;8.80;99.90
55091;DHT22;40985;53.180;5.800;2023-11-21T06:37:00;8.90;99.90
55091;DHT22;40985;53.180;5.800;2023-11-21T06:39:26;8.80;99.90
55091;DHT22;40985;53.180;5.800;2023-11-21T06:41:53;8.80;99.90
55091;DHT22;40985;53.180;5.800;2023-11-21T06:44:18;8.70;99.90
55091;DHT22;40985;53.180;5.800;2023-11-21T06:46:45;8.80;99.90
55091;DHT22;40985;53.180;5.800;2023-11-21T06:49:11;8.90;99.90
55091;DHT22;40985;53.180;5.800;2023-11-21T06:51:36;8.80;99.90
55091;DHT22;40985;53.180;5.800;2023-11-21T06:54:02;8.70;99.90
55091;DHT22;40985;53.180;5.800;2023-11-21T06:56:28;8.90;99.90
55091;DHT22;40985;53.180;5.800;2023-11-21T06:58:54;8.90;99.90
55091;DHT22;40985;53.180;5.800;2023-11-21T07:01:20;8.90;99.90
55091;DHT22;40985;53.180;5.800;2023-11-21T07:03:45;8.70;99.90
55091;DHT22;40985;53.180;5.800;2023-11-21T07:06:11;8.70;99.90
55091;DHT22;40985;53.180;5.800;2023-11-21T07:08:37;8.70;99.90
55091;DHT22;40985;53.180;5.800;2023-11-21T07:11:04;8.70;99.90
55091;DHT22;40985;53.180;5.800;2023-11-21T07:13:30;8.80;99.90
55091;DHT22;40985;53.180;5.800;2023-11-21T07:15:57;8.60;99.90
55091;DHT22;40985;53.180;5.800;2023-11-21T07:18:23;8.70;99.90
55091;DHT22;40985;53.180;5.800;2023-11-21T07:20:51;8.70;99.90
55091;DHT22;40985;53.180;5.800;2023-11-21T07:23:17;8.60;99.90
55091;DHT22;40985;53.180;5.800;2023-11-21T07:25:43;8.60;99.90
55091;DHT22;40985;53.180;5.800;2023-11-21T07:28:09;8.60;99.90
55091;DHT22;40985;53.180;5.800;2023-11-21T07:30:35;8.50;99.90
55091;DHT22;40985;53.180;5.800;2023-11-21T07:33:00;8.50;99.90
55091;DHT22;40985;53.180;5.800;2023-11-21T07:35:26;8.40;99.90
55091;DHT22;40985;53.180;5.800;2023-11-21T07:37:52;8.50;99.90
55091;DHT22;40985;53.180;5.800;2023-11-21T07:40:17;8.50;99.90
55091;DHT22;40985;53.180;5.800;2023-11-21T07:42:43;8.50;99.90
55091;DHT22;40985;53.180;5.800;2023-11-21T07:45:09;8.50;99.90
55091;DHT22;40985;53.180;5.800;2023-11-21T07:47:35;8.50;99.90
55091;DHT22;40985;53.180;5.800;2023-11-21T07:50:03;8.50;99.90
55091;DHT22;40985;53.180;5.800;2023-11-21T07:52:28;8.50;99.90
55091;DHT22;40985;53.180;5.800;2023-11-21T07:54:54;8.40;99.90
55091;DHT22;40985;53.180;5.800;2023-11-21T07:57:20;8.50;99.90
55091;DHT22;40985;53.180;5.800;2023-11-21T07:59:45;8.50;99.90
55091;DHT22;40985;53.180;5.800;2023-11-21T08:02:11;8.40;99.90
55091;DHT22;40985;53.180;5.800;2023-11-21T08:04:37;8.50;99.90
55091;DHT22;40985;53.180;5.800;2023-11-21T08:07:03;8.40;99.90
55091;DHT22;40985;53.180;5.800;2023-11-21T08:09:29;8.40;99.90
55091;DHT22;40985;53.180;5.800;2023-11-21T08:11:55;8.40;99.90
55091;DHT22;40985;53.180;5.800;2023-11-21T08:14:22;8.40;99.90
55091;DHT22;40985;53.180;5.800;2023-11-21T08:16:50;8.40;99.90
55091;DHT22;40985;53.180;5.800;2023-11-21T08:19:16;8.40;99.90
55091;DHT22;40985;53.180;5.800;2023-11-21T08:21:43;8.40;99.90
55091;DHT22;40985;53.180;5.800;2023-11-21T08:24:10;8.50;99.90
55091;DHT22;40985;53.180;5.800;2023-11-21T08:26:37;8.40;99.90
55091;DHT22;40985;53.180;5.800;2023-11-21T08:29:03;8.40;99.90
55091;DHT22;40985;53.180;5.800;2023-11-21T08:31:29;8.40;99.90
55091;DHT22;40985;53.180;5.800;2023-11-21T08:33:55;8.40;99.90
55091;DHT22;40985;53.180;5.800;2023-11-21T08:36:23;8.40;99.90
55091;DHT22;40985;53.180;5.800;2023-11-21T08:38:51;8.50;99.90
55091;DHT22;40985;53.180;5.800;2023-11-21T08:41:20;8.50;99.90
55091;DHT22;40985;53.180;5.800;2023-11-21T08:43:50;8.50;99.90
55091;DHT22;40985;53.180;5.800;2023-11-21T08:46:16;8.40;99.90
55091;DHT22;40985;53.180;5.800;2023-11-21T08:48:43;8.50;99.90
55091;DHT22;40985;53.180;5.800;2023-11-21T08:51:10;8.50;99.90
55091;DHT22;40985;53.180;5.800;2023-11-21T08:53:37;8.50;99.90
55091;DHT22;40985;53.180;5.800;2023-11-21T08:56:03;8.50;99.90
55091;DHT22;40985;53.180;5.800;2023-11-21T08:58:31;8.40;99.90
55091;DHT22;40985;53.180;5.800;2023-11-21T09:00:57;8.40;99.90
55091;DHT22;40985;53.180;5.800;2023-11-21T09:03:23;8.50;99.90
55091;DHT22;40985;53.180;5.800;2023-11-21T09:05:50;8.40;99.90
55091;DHT22;40985;53.180;5.800;2023-11-21T09:08:16;8.40;99.90
55091;DHT22;40985;53.180;5.800;2023-11-21T09:10:41;8.40;99.90
55091;DHT22;40985;53.180;5.800;2023-11-21T09:13:08;8.50;99.90
55091;DHT22;40985;53.180;5.800;2023-11-21T09:15:35;8.50;99.90
55091;DHT22;40985;53.180;5.800;2023-11-21T09:18:01;8.60;99.90
55091;DHT22;40985;53.180;5.800;2023-11-21T09:20:27;8.60;99.90
55091;DHT22;40985;53.180;5.800;2023-11-21T09:22:53;8.60;99.90
55091;DHT22;40985;53.180;5.800;2023-11-21T09:25:20;8.60;99.90
55091;DHT22;40985;53.180;5.800;2023-11-21T09:27:46;8.70;99.90
55091;DHT22;40985;53.180;5.800;2023-11-21T09:30:12;8.70;99.90
55091;DHT22;40985;53.180;5.800;2023-11-21T09:32:40;8.70;99.90
55091;DHT22;40985;53.180;5.800;2023-11-21T09:35:06;8.70;99.90
55091;DHT22;40985;53.180;5.800;2023-11-21T09:37:34;8.80;99.90
55091;DHT22;40985;53.180;5.800;2023-11-21T09:40:01;8.80;99.90
55091;DHT22;40985;53.180;5.800;2023-11-21T09:42:37;8.90;99.90
55091;DHT22;40985;53.180;5.800;2023-11-21T09:47:38;9.10;99.90
55091;DHT22;40985;53.180;5.800;2023-11-21T09:50:05;9.20;99.90
55091;DHT22;40985;53.180;5.800;2023-11-21T09:52:49;9.20;99.90
55091;DHT22;40985;53.180;5.800;2023-11-21T09:55:18;9.30;99.90
55091;DHT22;40985;53.180;5.800;2023-11-21T09:57:47;9.30;99.90
55091;DHT22;40985;53.180;5.800;2023-11-21T10:00:16;9.20;99.90
55091;DHT22;40985;53.180;5.800;2023-11-21T10:02:43;9.20;99.90
55091;DHT22;40985;53.180;5.800;2023-11-21T10:05:09;9.20;99.90
55091;DHT22;40985;53.180;5.800;2023-11-21T10:07:38;9.10;99.90
55091;DHT22;40985;53.180;5.800;2023-11-21T10:10:05;9.10;99.90
55091;DHT22;40985;53.180;5.800;2023-11-21T10:12:33;9.00;99.90
55091;DHT22;40985;53.180;5.800;2023-11-21T10:15:02;9.00;99.90
55091;DHT22;40985;53.180;5.800;2023-11-21T10:17:30;8.90;99.90
55091;DHT22;40985;53.180;5.800;2023-11-21T10:20:03;8.90;99.90
55091;DHT22;40985;53.180;5.800;2023-11-21T10:22:32;8.80;99.90
55091;DHT22;40985;53.180;5.800;2023-11-21T10:24:59;8.90;99.90
55091;DHT22;40985;53.180;5.800;2023-11-21T10:27:27;8.80;99.90
55091;DHT22;40985;53.180;5.800;2023-11-21T10:29:52;8.80;99.90
55091;DHT22;40985;53.180;5.800;2023-11-21T10:32:18;8.80;99.90
55091;DHT22;40985;53.180;5.800;2023-11-21T10:34:55;8.80;99.90
55091;DHT22;40985;53.180;5.800;2023-11-21T10:37:21;8.70;99.90
55091;DHT22;40985;53.180;5.800;2023-11-21T10:39:47;8.70;99.90
55091;DHT22;40985;53.180;5.800;2023-11-21T10:42:12;8.60;99.90
55091;DHT22;40985;53.180;5.800;2023-11-21T10:44:38;8.60;99.90
55091;DHT22;40985;53.180;5.800;2023-11-21T10:47:04;8.70;99.90
55091;DHT22;40985;53.180;5.800;2023-11-21T10:49:30;8.70;99.90
55091;DHT22;40985;53.180;5.800;2023-11-21T10:51:57;8.70;99.90
55091;DHT22;40985;53.180;5.800;2023-11-21T10:54:24;8.70;99.90
55091;DHT22;40985;53.180;5.800;2023-11-21T10:56:55;8.60;99.90
55091;DHT22;40985;53.180;5.800;2023-11-21T10:59:22;8.60;99.90
55091;DHT22;40985;53.180;5.800;2023-11-21T11:01:51;8.50;99.90
55091;DHT22;40985;53.180;5.800;2023-11-21T11:04:22;8.40;99.90
55091;DHT22;40985;53.180;5.800;2023-11-21T11:06:55;8.40;99.90
55091;DHT22;40985;53.180;5.800;2023-11-21T11:09:22;8.40;99.90
55091;DHT22;40985;53.180;5.800;2023-11-21T11:11:48;8.40;99.90
55091;DHT22;40985;53.180;5.800;2023-11-21T11:14:14;8.50;99.90
55091;DHT22;40985;53.180;5.800;2023-11-21T11:16:41;8.70;99.90
55091;DHT22;40985;53.180;5.800;2023-11-21T11:19:09;8.70;99.90
55091;DHT22;40985;53.180;5.800;2023-11-21T11:27:15;8.90;99.90
55091;DHT22;40985;53.180;5.800;2023-11-21T11:30:10;8.90;99.90
55091;DHT22;40985;53.180;5.800;2023-11-21T11:36:02;8.90;99.90
55091;DHT22;40985;53.180;5.800;2023-11-21T11:38:33;8.80;99.90
55091;DHT22;40985;53.180;5.800;2023-11-21T11:41:04;8.70;99.90
55091;DHT22;40985;53.180;5.800;2023-11-21T11:43:31;8.70;99.90
55091;DHT22;40985;53.180;5.800;2023-11-21T11:46:10;8.90;99.90
55091;DHT22;40985;53.180;5.800;2023-11-21T11:48:39;9.00;99.90
55091;DHT22;40985;53.180;5.800;2023-11-21T11:51:11;9.00;99.90
55091;DHT22;40985;53.180;5.800;2023-11-21T11:53:41;9.00;99.90
55091;DHT22;40985;53.180;5.800;2023-11-21T11:56:30;9.10;99.90
55091;DHT22;40985;53.180;5.800;2023-11-21T11:59:02;9.20;99.90
55091;DHT22;40985;53.180;5.800;2023-11-21T12:01:28;9.20;99.90
55091;DHT22;40985;53.180;5.800;2023-11-21T12:06:46;9.10;99.90
55091;DHT22;40985;53.180;5.800;2023-11-21T12:09:22;9.10;99.90
55091;DHT22;40985;53.180;5.800;2023-11-21T12:11:51;9.10;99.90
55091;DHT22;40985;53.180;5.800;2023-11-21T12:14:17;9.20;99.90
55091;DHT22;40985;53.180;5.800;2023-11-21T12:16:43;9.30;99.90
55091;DHT22;40985;53.180;5.800;2023-11-21T12:19:12;9.20;99.90
55091;DHT22;40985;53.180;5.800;2023-11-21T12:21:38;9.20;99.90
55091;DHT22;40985;53.180;5.800;2023-11-21T12:24:07;9.20;99.90
55091;DHT22;40985;53.180;5.800;2023-11-21T12:26:42;9.20;99.90
55091;DHT22;40985;53.180;5.800;2023-11-21T12:29:08;9.20;99.90
55091;DHT22;40985;53.180;5.800;2023-11-21T12:31:34;9.20;99.90
55091;DHT22;40985;53.180;5.800;2023-11-21T12:34:00;9.20;99.90
55091;DHT22;40985;53.180;5.800;2023-11-21T12:36:26;9.20;99.90
55091;DHT22;40985;53.180;5.800;2023-11-21T12:38:54;9.20;99.90
55091;DHT22;40985;53.180;5.800;2023-11-21T12:41:20;9.10;99.90
55091;DHT22;40985;53.180;5.800;2023-11-21T12:43:47;9.10;99.90
55091;DHT22;40985;53.180;5.800;2023-11-21T12:46:13;9.20;99.90
55091;DHT22;40985;53.180;5.800;2023-11-21T12:48:44;9.10;99.90
55091;DHT22;40985;53.180;5.800;2023-11-21T12:51:11;9.10;99.90
55091;DHT22;40985;53.180;5.800;2023-11-21T12:53:38;9.10;99.90
55091;DHT22;40985;53.180;5.800;2023-11-21T12:56:11;9.00;99.90
55091;DHT22;40985;53.180;5.800;2023-11-21T12:58:38;8.90;99.90
55091;DHT22;40985;53.180;5.800;2023-11-21T13:01:08;8.90;99.90
55091;DHT22;40985;53.180;5.800;2023-11-21T13:03:46;8.80;99.90
55091;DHT22;40985;53.180;5.800;2023-11-21T13:06:17;8.80;99.90
55091;DHT22;40985;53.180;5.800;2023-11-21T13:08:44;8.80;99.90
55091;DHT22;40985;53.180;5.800;2023-11-21T13:11:11;8.90;99.90
55091;DHT22;40985;53.180;5.800;2023-11-21T13:13:36;8.80;99.90
55091;DHT22;40985;53.180;5.800;2023-11-21T13:16:06;8.70;99.90
55091;DHT22;40985;53.180;5.800;2023-11-21T13:18:33;8.60;99.90
55091;DHT22;40985;53.180;5.800;2023-11-21T13:21:04;8.70;99.90
55091;DHT22;40985;53.180;5.800;2023-11-21T13:23:37;8.80;99.90
55091;DHT22;40985;53.180;5.800;2023-11-21T13:26:04;9.00;99.90
55091;DHT22;40985;53.180;5.800;2023-11-21T13:28:31;9.10;99.90
55091;DHT22;40985;53.180;5.800;2023-11-21T13:31:01;9.10;99.90
55091;DHT22;40985;53.180;5.800;2023-11-21T13:33:35;9.10;99.90
55091;DHT22;40985;53.180;5.800;2023-11-21T13:36:05;9.00;99.90
55091;DHT22;40985;53.180;5.800;2023-11-21T13:38:33;9.00;99.90
55091;DHT22;40985;53.180;5.800;2023-11-21T13:41:01;9.00;99.90
55091;DHT22;40985;53.180;5.800;2023-11-21T13:43:27;9.00;99.90
55091;DHT22;40985;53.180;5.800;2023-11-21T13:45:54;9.00;99.90
55091;DHT22;40985;53.180;5.800;2023-11-21T13:48:38;8.90;99.90
55091;DHT22;40985;53.180;5.800;2023-11-21T13:51:16;8.80;99.90
55091;DHT22;40985;53.180;5.800;2023-11-21T13:53:46;8.70;99.90
55091;DHT22;40985;53.180;5.800;2023-11-21T13:56:18;8.60;99.90
55091;DHT22;40985;53.180;5.800;2023-11-21T13:58:50;8.60;99.90
55091;DHT22;40985;53.180;5.800;2023-11-21T14:01:28;8.50;99.90
55091;DHT22;40985;53.180;5.800;2023-11-21T14:04:03;8.50;99.90
55091;DHT22;40985;53.180;5.800;2023-11-21T14:06:48;8.50;99.90
55091;DHT22;40985;53.180;5.800;2023-11-21T14:09:21;8.40;99.90
55091;DHT22;40985;53.180;5.800;2023-11-21T14:12:01;8.40;99.90
55091;DHT22;40985;53.180;5.800;2023-11-21T14:14:31;8.30;99.90
55091;DHT22;40985;53.180;5.800;2023-11-21T14:16:57;8.30;99.90
55091;DHT22;40985;53.180;5.800;2023-11-21T14:19:24;8.20;99.90
55091;DHT22;40985;53.180;5.800;2023-11-21T14:21:55;8.20;99.90
55091;DHT22;40985;53.180;5.800;2023-11-21T14:24:21;8.20;99.90
55091;DHT22;40985;53.180;5.800;2023-11-21T14:26:49;8.20;99.90
55091;DHT22;40985;53.180;5.800;2023-11-21T14:29:18;8.10;99.90
55091;DHT22;40985;53.180;5.800;2023-11-21T14:31:49;8.10;99.90
55091;DHT22;40985;53.180;5.800;2023-11-21T14:34:17;8.10;99.90
55091;DHT22;40985;53.180;5.800;2023-11-21T14:36:42;8.00;99.90
55091;DHT22;40985;53.180;5.800;2023-11-21T14:39:10;8.00;99.90
55091;DHT22;40985;53.180;5.800;2023-11-21T14:41:51;8.00;99.90
55091;DHT22;40985;53.180;5.800;2023-11-21T14:44:18;7.90;99.90
55091;DHT22;40985;53.180;5.800;2023-11-21T14:46:44;7.90;99.90
55091;DHT22;40985;53.180;5.800;2023-11-21T14:49:12;7.70;99.90
55091;DHT22;40985;53.180;5.800;2023-11-21T14:51:53;7.60;99.90
55091;DHT22;40985;53.180;5.800;2023-11-21T14:54:30;7.60;99.90
55091;DHT22;40985;53.180;5.800;2023-11-21T14:57:12;7.60;99.90
55091;DHT22;40985;53.180;5.800;2023-11-21T14:59:49;7.50;99.90
55091;DHT22;40985;53.180;5.800;2023-11-21T15:02:18;7.40;99.90
55091;DHT22;40985;53.180;5.800;2023-11-21T15:04:51;7.40;99.90
55091;DHT22;40985;53.180;5.800;2023-11-21T15:07:26;7.30;99.90
55091;DHT22;40985;53.180;5.800;2023-11-21T15:09:53;7.30;99.90
55091;DHT22;40985;53.180;5.800;2023-11-21T15:12:19;7.30;99.90
55091;DHT22;40985;53.180;5.800;2023-11-21T15:14:48;7.30;99.90
55091;DHT22;40985;53.180;5.800;2023-11-21T15:17:18;7.30;99.90
55091;DHT22;40985;53.180;5.800;2023-11-21T15:19:51;7.30;99.90
55091;DHT22;40985;53.180;5.800;2023-11-21T15:22:17;7.30;99.90
55091;DHT22;40985;53.180;5.800;2023-11-21T15:24:43;7.30;99.90
55091;DHT22;40985;53.180;5.800;2023-11-21T15:27:13;7.30;99.90
55091;DHT22;40985;53.180;5.800;2023-11-21T15:29:39;7.30;99.90
55091;DHT22;40985;53.180;5.800;2023-11-21T15:32:07;7.20;99.90
55091;DHT22;40985;53.180;5.800;2023-11-21T15:34:33;7.20;99.90
55091;DHT22;40985;53.180;5.800;2023-11-21T15:36:59;7.10;99.90
55091;DHT22;40985;53.180;5.800;2023-11-21T15:39:25;7.10;99.90
55091;DHT22;40985;53.180;5.800;2023-11-21T15:41:55;7.10;99.90
55091;DHT22;40985;53.180;5.800;2023-11-21T15:44:21;7.00;99.90
55091;DHT22;40985;53.180;5.800;2023-11-21T15:46:46;6.90;99.90
55091;DHT22;40985;53.180;5.800;2023-11-21T15:49:13;6.90;99.90
55091;DHT22;40985;53.180;5.800;2023-11-21T15:51:44;6.80;99.90
55091;DHT22;40985;53.180;5.800;2023-11-21T15:54:22;6.80;99.90
55091;DHT22;40985;53.180;5.800;2023-11-21T15:56:49;6.70;99.90
55091;DHT22;40985;53.180;5.800;2023-11-21T15:59:15;6.70;99.90
55091;DHT22;40985;53.180;5.800;2023-11-21T16:01:42;6.70;99.90
55091;DHT22;40985;53.180;5.800;2023-11-21T16:04:12;6.70;99.90